Forside
METAR-TAF:

METAR-TAF

Lufthavne :

South Wood County Airport (Alexander Field)

Wisconsin Rapids, Wisconsin, USA

Breddekreds: 44-21-33N, længdekreds: 089-50-13W, højde: 311 m

Aktuelle vejr

Denne rapport blev lavet for 34 minutter siden, kl. 23:54 UTC
Vind 7 kt fra nordnordvest
Temperatur 23°C
Fugtighed 47%
Tryk 1021 hPa
Sigt: 16.1 km
Brudte skyer i en højde af 8500 ft

METAR: KISW 012354Z AUTO 33007KT 10SM BKN085 23/11 A3014 RMK AO2 SLP203 T02280111 10244 20211 55000

Tid: 19:28 (00:28 UTC)


TAF: fraværende

Vejrobservationer og prognoser fra mere end 4000 lufthavne (METAR og TAF).

De gule og røde prikker repræsenterer de meteorologiske stationer.

Flyt musen over at se navnet på stationen.

Så klik over at se vejr observationer og prognoser.

At skifte det kort: Klik på de grønne knapper med et sort kors for at zoome ind; på den grønne knap med en bindestreg for at zoome ud; eller på de grønne pile for tilstødende kort.


METAR-TAF: